ENOV Airport Information

Runway Information
Runway 06 Length 3510 ft width 98 ft Elevation 241 ft Threshold N/A Heading 61
Runway 24 Length 3510 ft Width 98 ft Elevation 238 ft Threshold N/A Heading 241
Airport Frequencies
Airport Navaids
Type NDB Name Baatvik Frequency 362 KHZ
Type NDB Name Hovden Frequency 389 KHZ
Airport Weather Information & NOTAM
ADDS - METARS form results

(1305 UTC 27 November 2022)
Data provider http://aviationweather.gov/metar/data/
 
METAR text: ENOV 271250Z AUTO VRB04G15KT 9999 -RA FEW029/// SCT051/// 11/02 Q1008 RMK WIND RWY24 04011KT WIND 2090FT 14032G43KT
Conditions at: ENOV (ORSTA-VOLDA/HOVD, NO) observed 1250 UTC 27 November 2022
Temperature: 11.0°C (52°F)
Dewpoint: 2.0°C (36°F) [RH = 54%]
Pressure (altimeter): 29.76 inches Hg (1008.0 mb)
Winds: variable direction winds at 5 MPH (4 knots; 2.1 m/s)
gusting to 17 MPH (15 knots; 7.7 m/s)
Visibility: 6 or more miles (10+ km)
Ceiling: at least 12,000 feet AGL
Clouds: few clouds at 2900 feet AGL
scattered clouds at 5100 feet AGL
Weather: -RA  (light rain)

METAR text: ENOV 271220Z VRB04G15KT 9999 -RA FEW029 BKN051 11/02 Q1008 RMK WIND RWY24 06011G29KT WIND 2090FT 14032KT
Conditions at: ENOV (ORSTA-VOLDA/HOVD, NO) observed 1220 UTC 27 November 2022
Temperature: 11.0°C (52°F)
Dewpoint: 2.0°C (36°F) [RH = 54%]
Pressure (altimeter): 29.76 inches Hg (1008.0 mb)
Winds: variable direction winds at 5 MPH (4 knots; 2.1 m/s)
gusting to 17 MPH (15 knots; 7.7 m/s)
Visibility: 6 or more miles (10+ km)
Ceiling: 5100 feet AGL
Clouds: few clouds at 2900 feet AGL
broken clouds at 5100 feet AGL
Weather: -RA  (light rain)

Forecast for: AMD
Text: TAF AMD ENOV 271202Z 2712/2721 VRB08G18KT 9999 -RA SCT025 BKN040
Forecast period: 1200 to 2100 UTC 27 November 2022
Forecast type: FROM: standard forecast or significant change
Winds: variable direction winds at 9 MPH (8 knots; 4.1 m/s)
gusting to 21 MPH (18 knots; 9.3 m/s)
Visibility: 6 or more miles (10+ km)
Ceiling: 4000 feet AGL
Clouds: scattered clouds at 2500 feet AGL
broken clouds at 4000 feet AGL
Weather: -RA  (light rain)
Text: TEMPO 2712/2718 07018G30KT RA
Forecast period: 1200 to 1800 UTC 27 November 2022
Forecast type: TEMPORARY: The following changes expected for less than half the time period
Winds: from the ENE (70 degrees) at 21 MPH (18 knots; 9.3 m/s)
gusting to 34 MPH (30 knots; 15.4 m/s)
Visibility: missing
Ceiling: unknown
Clouds: missing
Weather: RA  (moderate rain)